createdAt,value
2018-12-26T00:00:01.218Z,1030.97
2018-12-26T00:01:01.105Z,1030.95
2018-12-26T00:02:01.074Z,1030.95
2018-12-26T00:03:01.055Z,1030.96
2018-12-26T00:04:01.030Z,1030.98
2018-12-26T00:05:01.028Z,1030.98
2018-12-26T00:06:00.983Z,1031.02
2018-12-26T00:07:00.956Z,1031.05
2018-12-26T00:08:00.940Z,1031.04
2018-12-26T00:09:00.926Z,1031.10
2018-12-26T00:10:00.909Z,1031.05
2018-12-26T00:11:00.862Z,1031.07
2018-12-26T00:12:00.851Z,1031.06
2018-12-26T00:13:00.834Z,1031.05
2018-12-26T00:14:02.562Z,1031.06
2018-12-26T00:15:00.777Z,1031.05
2018-12-26T00:16:00.762Z,1031.02
2018-12-26T00:17:00.728Z,1031.00
2018-12-26T00:18:00.699Z,1030.94
2018-12-26T00:19:00.675Z,1030.96
2018-12-26T00:20:00.676Z,1030.99
2018-12-26T00:21:00.628Z,1031.00
2018-12-26T00:22:00.618Z,1030.97
2018-12-26T00:23:00.579Z,1030.95
2018-12-26T00:24:00.565Z,1030.93
2018-12-26T00:25:00.532Z,1030.94
2018-12-26T00:26:01.775Z,1030.91
2018-12-26T00:27:00.500Z,1030.93
2018-12-26T00:28:00.461Z,1030.95
2018-12-26T00:29:00.473Z,1030.90
2018-12-26T00:30:00.412Z,1030.90
2018-12-26T00:31:00.450Z,1030.87
2018-12-26T00:32:00.382Z,1030.86
2018-12-26T00:33:00.338Z,1030.82
2018-12-26T00:34:00.325Z,1030.81
2018-12-26T00:35:00.297Z,1030.81
2018-12-26T00:36:00.268Z,1030.82
2018-12-26T00:37:00.288Z,1030.80
2018-12-26T00:38:00.221Z,1030.80
2018-12-26T00:39:00.226Z,1030.80
2018-12-26T00:40:00.180Z,1030.79
2018-12-26T00:41:00.159Z,1030.79
2018-12-26T00:42:00.139Z,1030.80
2018-12-26T00:43:00.164Z,1030.80
2018-12-26T00:44:00.147Z,1030.78
2018-12-26T00:45:00.091Z,1030.82
2018-12-26T00:46:00.030Z,1030.84
2018-12-26T00:47:00.010Z,1030.84
2018-12-26T00:47:59.997Z,1030.79
2018-12-26T00:48:59.981Z,1030.77
2018-12-26T00:49:59.941Z,1030.79
2018-12-26T00:50:59.915Z,1030.76
2018-12-26T00:51:59.894Z,1030.78
2018-12-26T00:53:00.957Z,1030.76
2018-12-26T00:53:59.846Z,1030.74
2018-12-26T00:54:59.829Z,1030.74
2018-12-26T00:55:59.799Z,1030.74
2018-12-26T00:56:59.775Z,1030.77
2018-12-26T00:57:59.755Z,1030.70
2018-12-26T00:58:59.753Z,1030.71
2018-12-26T00:59:59.703Z,1030.70
2018-12-26T01:00:59.686Z,1030.76
2018-12-26T01:01:59.650Z,1030.75
2018-12-26T01:02:59.631Z,1030.78
2018-12-26T01:03:59.614Z,1030.82
2018-12-26T01:04:59.598Z,1030.80
2018-12-26T01:05:59.560Z,1030.77
2018-12-26T01:06:59.538Z,1030.75
2018-12-26T01:07:59.510Z,1030.79
2018-12-26T01:08:59.507Z,1030.80
2018-12-26T01:09:59.465Z,1030.79
2018-12-26T01:10:59.444Z,1030.79
2018-12-26T01:11:59.419Z,1030.78
2018-12-26T01:12:59.395Z,1030.80
2018-12-26T01:13:59.368Z,1030.78
2018-12-26T01:14:59.371Z,1030.75
2018-12-26T01:15:59.323Z,1030.77
2018-12-26T01:16:59.299Z,1030.77
2018-12-26T01:17:59.273Z,1030.76
2018-12-26T01:18:59.259Z,1030.70
2018-12-26T01:19:59.229Z,1030.68
2018-12-26T01:20:59.228Z,1030.66
2018-12-26T01:21:59.180Z,1030.68
2018-12-26T01:22:59.152Z,1030.67
2018-12-26T01:23:59.131Z,1030.65
2018-12-26T01:24:59.104Z,1030.63
2018-12-26T01:25:59.084Z,1030.62
2018-12-26T01:26:59.078Z,1030.60
2018-12-26T01:27:59.034Z,1030.58
2018-12-26T01:28:59.013Z,1030.57
2018-12-26T01:29:58.988Z,1030.55
2018-12-26T01:30:58.976Z,1030.54
2018-12-26T01:31:58.937Z,1030.57
2018-12-26T01:32:58.913Z,1030.58
2018-12-26T01:33:58.888Z,1030.54
2018-12-26T01:34:58.866Z,1030.55
2018-12-26T01:35:58.848Z,1030.51
2018-12-26T01:36:58.835Z,1030.51
2018-12-26T01:37:58.797Z,1030.50
2018-12-26T01:38:58.797Z,1030.48
2018-12-26T01:39:58.749Z,1030.48
2018-12-26T01:40:58.726Z,1030.49
2018-12-26T01:41:58.699Z,1030.49
2018-12-26T01:42:58.679Z,1030.51
2018-12-26T01:43:58.653Z,1030.53
2018-12-26T01:44:58.653Z,1030.52
2018-12-26T01:45:58.612Z,1030.53
2018-12-26T01:46:58.669Z,1030.53
2018-12-26T01:47:58.574Z,1030.47
2018-12-26T01:48:58.533Z,1030.50
2018-12-26T01:49:58.506Z,1030.48
2018-12-26T01:50:58.484Z,1030.49
2018-12-26T01:51:58.460Z,1030.43
2018-12-26T01:52:58.435Z,1030.43
2018-12-26T01:53:58.433Z,1030.43
2018-12-26T01:54:58.389Z,1030.43
2018-12-26T01:55:58.369Z,1030.43
2018-12-26T01:56:58.338Z,1030.41
2018-12-26T01:57:58.582Z,1030.40
2018-12-26T01:58:58.294Z,1030.38
2018-12-26T01:59:58.268Z,1030.35
2018-12-26T02:00:58.248Z,1030.32
2018-12-26T02:01:58.221Z,1030.35
2018-12-26T02:02:58.214Z,1030.35
2018-12-26T02:03:58.173Z,1030.35
2018-12-26T02:04:58.149Z,1030.35
2018-12-26T02:05:58.961Z,1030.35
2018-12-26T02:06:58.123Z,1030.34
2018-12-26T02:07:58.077Z,1030.35
2018-12-26T02:08:58.090Z,1030.32
2018-12-26T02:09:58.030Z,1030.33
2018-12-26T02:10:58.006Z,1030.30
2018-12-26T02:11:57.982Z,1030.31
2018-12-26T02:12:57.961Z,1030.31
2018-12-26T02:13:58.580Z,1030.29
2018-12-26T02:15:12.059Z,1030.27
2018-12-26T02:15:57.893Z,1030.31
2018-12-26T02:16:57.865Z,1030.30
2018-12-26T02:17:57.857Z,1030.33
2018-12-26T02:18:57.810Z,1030.30
2018-12-26T02:19:57.790Z,1030.30
2018-12-26T02:20:57.784Z,1030.29
2018-12-26T02:21:57.738Z,1030.34
2018-12-26T02:22:57.719Z,1030.32
2018-12-26T02:23:57.694Z,1030.33
2018-12-26T02:24:57.699Z,1030.34
2018-12-26T02:25:57.645Z,1030.32
2018-12-26T02:26:57.627Z,1030.31
2018-12-26T02:27:58.475Z,1030.33
2018-12-26T02:28:57.578Z,1030.34
2018-12-26T02:29:58.463Z,1030.32
2018-12-26T02:30:57.544Z,1030.33
2018-12-26T02:31:57.502Z,1030.33
2018-12-26T02:32:57.489Z,1030.36
2018-12-26T02:33:57.455Z,1030.29
2018-12-26T02:34:57.432Z,1030.31
2018-12-26T02:35:57.404Z,1030.24
2018-12-26T02:36:57.419Z,1030.24
2018-12-26T02:37:57.360Z,1030.28
2018-12-26T02:38:57.339Z,1030.23
2018-12-26T02:39:57.313Z,1030.29
2018-12-26T02:40:57.283Z,1030.29
2018-12-26T02:41:57.269Z,1030.26
2018-12-26T02:42:57.269Z,1030.25
2018-12-26T02:43:57.215Z,1030.27
2018-12-26T02:44:57.187Z,1030.30
2018-12-26T02:45:57.169Z,1030.29
2018-12-26T02:46:57.148Z,1030.27
2018-12-26T02:47:57.138Z,1030.30
2018-12-26T02:48:57.097Z,1030.27
2018-12-26T02:49:57.070Z,1030.25
2018-12-26T02:50:57.043Z,1030.22
2018-12-26T02:51:57.027Z,1030.19
2018-12-26T02:52:57.026Z,1030.18
2018-12-26T02:53:56.980Z,1030.15
2018-12-26T02:54:56.998Z,1030.15
2018-12-26T02:55:56.930Z,1030.14
2018-12-26T02:56:56.907Z,1030.15
2018-12-26T02:57:56.909Z,1030.11
2018-12-26T02:58:56.863Z,1030.12
2018-12-26T02:59:56.836Z,1030.10
2018-12-26T03:00:56.811Z,1030.12
2018-12-26T03:01:56.807Z,1030.15
2018-12-26T03:02:56.763Z,1030.13
2018-12-26T03:03:56.761Z,1030.12
2018-12-26T03:04:56.708Z,1030.11
2018-12-26T03:05:56.691Z,1030.11
2018-12-26T03:06:56.663Z,1030.11
2018-12-26T03:07:56.645Z,1030.14
2018-12-26T03:08:56.618Z,1030.12
2018-12-26T03:09:57.462Z,1030.14
2018-12-26T03:10:56.571Z,1030.12
2018-12-26T03:11:56.545Z,1030.11
2018-12-26T03:12:56.524Z,1030.12
2018-12-26T03:13:56.498Z,1030.10
2018-12-26T03:14:56.491Z,1030.09
2018-12-26T03:15:56.457Z,1030.10
2018-12-26T03:16:56.426Z,1030.08
2018-12-26T03:17:56.403Z,1030.09
2018-12-26T03:18:56.378Z,1030.05
2018-12-26T03:19:56.374Z,1030.03
2018-12-26T03:20:56.344Z,1030.08
2018-12-26T03:21:56.318Z,1030.02
2018-12-26T03:22:56.282Z,1030.03
2018-12-26T03:23:56.259Z,1030.05
2018-12-26T03:24:56.258Z,1030.00
2018-12-26T03:25:56.211Z,1030.02
2018-12-26T03:26:56.726Z,1030.00
2018-12-26T03:27:56.159Z,1030.00
2018-12-26T03:28:56.138Z,1030.02
2018-12-26T03:29:56.112Z,1030.03
2018-12-26T03:30:56.109Z,1029.99
2018-12-26T03:31:56.063Z,1029.99
2018-12-26T03:32:56.055Z,1030.01
2018-12-26T03:33:56.020Z,1029.97
2018-12-26T03:34:55.986Z,1029.96
2018-12-26T03:35:55.971Z,1029.95
2018-12-26T03:36:55.961Z,1029.98
2018-12-26T03:37:55.920Z,1029.92
2018-12-26T03:38:55.898Z,1029.93
2018-12-26T03:39:55.872Z,1029.91
2018-12-26T03:40:55.850Z,1029.89
2018-12-26T03:41:55.846Z,1029.90
2018-12-26T03:42:55.802Z,1029.89
2018-12-26T03:43:55.778Z,1029.90
2018-12-26T03:44:55.758Z,1029.84
2018-12-26T03:45:55.730Z,1029.88
2018-12-26T03:46:55.703Z,1029.82
2018-12-26T03:47:55.701Z,1029.83
2018-12-26T03:48:55.649Z,1029.81
2018-12-26T03:49:55.641Z,1029.79
2018-12-26T03:50:55.606Z,1029.81
2018-12-26T03:51:55.583Z,1029.81
2018-12-26T03:52:55.560Z,1029.78
2018-12-26T03:53:55.565Z,1029.86
2018-12-26T03:54:55.513Z,1029.80
2018-12-26T03:55:55.489Z,1029.79
2018-12-26T03:56:55.466Z,1029.81
2018-12-26T03:57:55.439Z,1029.79
2018-12-26T03:58:55.430Z,1029.81
2018-12-26T03:59:55.393Z,1029.82
2018-12-26T04:00:55.366Z,1029.80
2018-12-26T04:01:55.343Z,1029.81
2018-12-26T04:02:55.334Z,1029.83
2018-12-26T04:03:55.310Z,1029.84
2018-12-26T04:04:55.268Z,1029.80
2018-12-26T04:05:55.251Z,1029.85
2018-12-26T04:06:55.221Z,1029.81
2018-12-26T04:07:55.216Z,1029.79
2018-12-26T04:08:55.171Z,1029.80
2018-12-26T04:09:55.147Z,1029.80
2018-12-26T04:10:55.126Z,1029.84
2018-12-26T04:11:55.102Z,1029.79
2018-12-26T04:12:55.078Z,1029.77
2018-12-26T04:13:55.067Z,1029.80
2018-12-26T04:14:55.031Z,1029.81
2018-12-26T04:15:55.006Z,1029.81
2018-12-26T04:16:54.979Z,1029.79
2018-12-26T04:17:54.957Z,1029.80
2018-12-26T04:18:54.933Z,1029.79
2018-12-26T04:19:54.929Z,1029.83
2018-12-26T04:20:54.890Z,1029.81
2018-12-26T04:21:54.861Z,1029.82
2018-12-26T04:22:54.839Z,1029.82
2018-12-26T04:23:54.814Z,1029.81
2018-12-26T04:24:54.803Z,1029.81
2018-12-26T04:25:54.762Z,1029.82
2018-12-26T04:26:54.740Z,1029.84
2018-12-26T04:27:54.717Z,1029.86
2018-12-26T04:28:54.694Z,1029.85
2018-12-26T04:29:54.685Z,1029.83
2018-12-26T04:30:54.653Z,1029.82
2018-12-26T04:31:54.622Z,1029.81
2018-12-26T04:32:54.635Z,1029.77
2018-12-26T04:33:54.573Z,1029.74
2018-12-26T04:34:54.549Z,1029.75
2018-12-26T04:35:54.531Z,1029.73
2018-12-26T04:36:54.503Z,1029.70
2018-12-26T04:37:54.478Z,1029.65
2018-12-26T04:38:54.470Z,1029.65
2018-12-26T04:39:54.437Z,1029.66
2018-12-26T04:40:54.404Z,1029.61
2018-12-26T04:41:54.388Z,1029.61
2018-12-26T04:42:54.363Z,1029.58
2018-12-26T04:43:54.363Z,1029.55
2018-12-26T04:44:54.316Z,1029.55
2018-12-26T04:45:54.287Z,1029.54
2018-12-26T04:46:54.262Z,1029.52
2018-12-26T04:47:54.239Z,1029.53
2018-12-26T04:48:54.215Z,1029.51
2018-12-26T04:49:54.207Z,1029.50
2018-12-26T04:50:54.170Z,1029.46
2018-12-26T04:51:54.136Z,1029.46
2018-12-26T04:52:54.126Z,1029.48
2018-12-26T04:53:54.120Z,1029.51
2018-12-26T04:54:56.346Z,1029.52
2018-12-26T04:55:54.048Z,1029.53
2018-12-26T04:56:54.022Z,1029.56
2018-12-26T04:57:54.001Z,1029.58
2018-12-26T04:58:53.972Z,1029.57
2018-12-26T04:59:53.979Z,1029.59
2018-12-26T05:00:53.928Z,1029.58
2018-12-26T05:01:53.898Z,1029.61
2018-12-26T05:02:53.879Z,1029.63
2018-12-26T05:03:53.852Z,1029.61
2018-12-26T05:04:53.831Z,1029.58
2018-12-26T05:05:53.841Z,1029.62
2018-12-26T05:06:53.781Z,1029.61
2018-12-26T05:07:53.756Z,1029.62
2018-12-26T05:08:53.732Z,1029.60
2018-12-26T05:09:53.702Z,1029.62
2018-12-26T05:10:53.686Z,1029.61
2018-12-26T05:11:53.674Z,1029.66
2018-12-26T05:12:53.650Z,1029.61
2018-12-26T05:13:53.613Z,1029.64
2018-12-26T05:14:53.597Z,1029.62
2018-12-26T05:15:53.565Z,1029.63
2018-12-26T05:16:53.552Z,1029.63
2018-12-26T05:17:53.517Z,1029.59
2018-12-26T05:18:53.523Z,1029.62
2018-12-26T05:19:53.467Z,1029.63
2018-12-26T05:20:53.440Z,1029.61
2018-12-26T05:21:53.443Z,1029.63
2018-12-26T05:22:53.396Z,1029.64
2018-12-26T05:23:53.373Z,1029.67
2018-12-26T05:24:53.348Z,1029.62
2018-12-26T05:25:53.321Z,1029.67
2018-12-26T05:26:53.441Z,1029.69
2018-12-26T05:27:53.277Z,1029.70
2018-12-26T05:28:53.253Z,1029.67
2018-12-26T05:29:53.230Z,1029.70
2018-12-26T05:30:53.199Z,1029.69
2018-12-26T05:31:53.327Z,1029.66
2018-12-26T05:32:53.172Z,1029.67
2018-12-26T05:33:53.148Z,1029.72
2018-12-26T05:34:53.110Z,1029.72
2018-12-26T05:35:53.098Z,1029.72
2018-12-26T05:36:53.064Z,1029.68
2018-12-26T05:37:53.042Z,1029.68
2018-12-26T05:38:53.011Z,1029.67
2018-12-26T05:39:53.003Z,1029.74
2018-12-26T05:40:52.969Z,1029.69
2018-12-26T05:41:52.954Z,1029.72
2018-12-26T05:42:52.916Z,1029.73
2018-12-26T05:43:52.890Z,1029.75
2018-12-26T05:44:52.865Z,1029.72
2018-12-26T05:45:52.847Z,1029.75
2018-12-26T05:46:52.830Z,1029.75
2018-12-26T05:47:52.800Z,1029.73
2018-12-26T05:48:52.771Z,1029.73
2018-12-26T05:49:52.773Z,1029.78
2018-12-26T05:50:52.725Z,1029.77
2018-12-26T05:51:52.703Z,1029.79
2018-12-26T05:52:52.674Z,1029.84
2018-12-26T05:53:52.652Z,1029.83
2018-12-26T05:54:52.630Z,1029.83
2018-12-26T05:55:52.652Z,1029.81
2018-12-26T05:56:52.586Z,1029.81
2018-12-26T05:57:52.554Z,1029.83
2018-12-26T05:58:52.572Z,1029.82
2018-12-26T05:59:52.510Z,1029.87
2018-12-26T06:00:52.556Z,1029.87
2018-12-26T06:01:52.488Z,1029.85
2018-12-26T06:02:52.441Z,1029.86
2018-12-26T06:03:52.415Z,1029.83
2018-12-26T06:04:52.393Z,1029.85
2018-12-26T06:05:52.365Z,1029.85
2018-12-26T06:06:52.359Z,1029.82
2018-12-26T06:07:52.334Z,1029.84
2018-12-26T06:08:52.295Z,1029.81
2018-12-26T06:09:52.271Z,1029.75
2018-12-26T06:10:52.253Z,1029.77
2018-12-26T06:11:52.241Z,1029.80
2018-12-26T06:12:52.203Z,1029.79
2018-12-26T06:13:52.173Z,1029.79
2018-12-26T06:14:52.157Z,1029.80
2018-12-26T06:15:52.150Z,1029.82
2018-12-26T06:16:52.122Z,1029.83
2018-12-26T06:17:52.085Z,1029.81
2018-12-26T06:18:52.061Z,1029.77
2018-12-26T06:19:52.035Z,1029.83
2018-12-26T06:20:52.031Z,1029.80
2018-12-26T06:21:51.989Z,1029.80
2018-12-26T06:22:51.965Z,1029.78
2018-12-26T06:23:51.944Z,1029.83
2018-12-26T06:24:51.989Z,1029.85
2018-12-26T06:25:51.913Z,1029.87
2018-12-26T06:26:51.874Z,1029.85
2018-12-26T06:27:51.854Z,1029.85
2018-12-26T06:28:51.830Z,1029.82
2018-12-26T06:29:51.802Z,1029.84
2018-12-26T06:30:51.797Z,1029.82
2018-12-26T06:31:51.753Z,1029.80
2018-12-26T06:32:51.829Z,1029.80
2018-12-26T06:33:51.711Z,1029.84
2018-12-26T06:34:51.686Z,1029.80
2018-12-26T06:35:51.663Z,1029.84
2018-12-26T06:36:51.649Z,1029.82
2018-12-26T06:37:51.610Z,1029.84
2018-12-26T06:38:51.588Z,1029.84
2018-12-26T06:39:51.568Z,1029.82
2018-12-26T06:40:51.546Z,1029.84
2018-12-26T06:41:51.538Z,1029.83
2018-12-26T06:42:51.495Z,1029.80
2018-12-26T06:43:51.471Z,1029.80
2018-12-26T06:44:51.466Z,1029.80
2018-12-26T06:45:51.440Z,1029.83
2018-12-26T06:46:51.402Z,1029.86
2018-12-26T06:47:51.379Z,1029.83
2018-12-26T06:48:51.357Z,1029.85
2018-12-26T06:49:51.329Z,1029.80
2018-12-26T06:50:51.305Z,1029.82
2018-12-26T06:51:51.305Z,1029.80
2018-12-26T06:52:51.267Z,1029.78
2018-12-26T06:53:51.238Z,1029.75
2018-12-26T06:54:51.217Z,1029.76
2018-12-26T06:55:51.187Z,1029.77
2018-12-26T06:56:51.182Z,1029.78
2018-12-26T06:57:51.145Z,1029.77
2018-12-26T06:58:51.331Z,1029.75
2018-12-26T06:59:51.097Z,1029.74
2018-12-26T07:00:51.073Z,1029.77
2018-12-26T07:01:51.068Z,1029.76
2018-12-26T07:02:51.039Z,1029.82
2018-12-26T07:03:51.004Z,1029.82
2018-12-26T07:04:50.976Z,1029.83
2018-12-26T07:05:50.956Z,1029.83
2018-12-26T07:06:50.933Z,1029.82
2018-12-26T07:07:50.932Z,1029.86
2018-12-26T07:08:50.884Z,1029.85
2018-12-26T07:09:50.861Z,1029.86
2018-12-26T07:10:50.837Z,1029.85
2018-12-26T07:11:50.820Z,1029.84
2018-12-26T07:12:50.814Z,1029.87
2018-12-26T07:13:50.799Z,1029.89
2018-12-26T07:14:50.750Z,1029.88
2018-12-26T07:15:50.725Z,1029.96
2018-12-26T07:16:50.703Z,1029.95
2018-12-26T07:17:50.700Z,1029.99
2018-12-26T07:18:50.650Z,1029.95
2018-12-26T07:19:50.625Z,1030.02
2018-12-26T07:20:50.618Z,1030.04
2018-12-26T07:21:50.571Z,1030.02
2018-12-26T07:22:50.554Z,1030.02
2018-12-26T07:23:50.551Z,1030.05
2018-12-26T07:24:50.505Z,1030.05
2018-12-26T07:25:50.480Z,1030.06
2018-12-26T07:26:50.470Z,1030.07
2018-12-26T07:27:50.433Z,1030.07
2018-12-26T07:28:50.412Z,1030.02
2018-12-26T07:29:50.385Z,1030.05
2018-12-26T07:30:50.362Z,1030.03
2018-12-26T07:31:50.364Z,1030.00
2018-12-26T07:32:50.313Z,1030.00
2018-12-26T07:33:50.320Z,1030.02
2018-12-26T07:34:50.268Z,1030.00
2018-12-26T07:35:50.278Z,1030.02
2018-12-26T07:36:50.227Z,1030.00
2018-12-26T07:37:50.205Z,1030.04
2018-12-26T07:38:50.177Z,1030.02
2018-12-26T07:39:50.154Z,1030.02
2018-12-26T07:42:36.465Z,1030.03
2018-12-26T07:43:36.415Z,1030.00
2018-12-26T07:44:36.393Z,1030.01
2018-12-26T07:45:36.376Z,1030.00
2018-12-26T07:46:36.345Z,1030.03
2018-12-26T07:47:36.324Z,1030.00
2018-12-26T07:48:36.322Z,1030.04
2018-12-26T07:49:36.268Z,1030.02
2018-12-26T07:50:36.252Z,1030.03
2018-12-26T07:51:36.245Z,1030.02
2018-12-26T07:52:36.203Z,1030.01
2018-12-26T07:53:36.179Z,1030.04
2018-12-26T07:54:36.152Z,1030.08
2018-12-26T07:55:36.134Z,1030.03
2018-12-26T07:56:36.107Z,1030.04
2018-12-26T07:57:36.101Z,1030.06
2018-12-26T07:58:36.062Z,1030.07
2018-12-26T07:59:37.747Z,1030.03
2018-12-26T08:00:36.020Z,1030.05
2018-12-26T08:01:37.973Z,1030.08
2018-12-26T08:02:35.982Z,1030.08
2018-12-26T08:03:35.947Z,1030.09
2018-12-26T08:04:35.929Z,1030.11
2018-12-26T08:05:35.889Z,1030.14
2018-12-26T08:06:35.871Z,1030.13
2018-12-26T08:07:35.844Z,1030.11
2018-12-26T08:08:35.837Z,1030.10
2018-12-26T08:09:35.798Z,1030.12
2018-12-26T08:10:35.774Z,1030.15
2018-12-26T08:11:35.749Z,1030.14
2018-12-26T08:12:35.724Z,1030.09
2018-12-26T08:13:35.717Z,1030.09
2018-12-26T08:14:35.674Z,1030.13
2018-12-26T08:15:36.559Z,1030.20
2018-12-26T08:16:35.631Z,1030.19
2018-12-26T08:17:35.630Z,1030.19
2018-12-26T08:18:35.579Z,1030.20
2018-12-26T08:19:35.556Z,1030.23
2018-12-26T08:20:35.538Z,1030.21
2018-12-26T08:21:35.516Z,1030.20
2018-12-26T08:22:35.494Z,1030.22
2018-12-26T08:23:35.478Z,1030.23
2018-12-26T08:24:35.440Z,1030.20
2018-12-26T08:25:35.418Z,1030.13
2018-12-26T08:26:35.393Z,1030.16
2018-12-26T08:27:35.367Z,1030.16
2018-12-26T08:28:35.361Z,1030.18
2018-12-26T08:29:35.320Z,1030.17
2018-12-26T08:30:35.300Z,1030.19
2018-12-26T08:31:35.278Z,1030.24
2018-12-26T08:32:35.249Z,1030.20
2018-12-26T08:33:35.226Z,1030.21
2018-12-26T08:34:35.230Z,1030.23
2018-12-26T08:35:35.195Z,1030.20
2018-12-26T08:36:35.161Z,1030.22
2018-12-26T08:37:35.138Z,1030.21
2018-12-26T08:38:35.137Z,1030.19
2018-12-26T08:39:35.223Z,1030.20
2018-12-26T08:40:35.063Z,1030.20
2018-12-26T08:41:35.043Z,1030.22
2018-12-26T08:42:35.021Z,1030.26
2018-12-26T08:43:34.989Z,1030.26
2018-12-26T08:44:34.970Z,1030.32
2018-12-26T08:45:34.961Z,1030.30
2018-12-26T08:46:34.921Z,1030.33
2018-12-26T08:47:34.915Z,1030.34
2018-12-26T08:48:34.871Z,1030.36
2018-12-26T08:49:34.860Z,1030.40
2018-12-26T08:50:34.845Z,1030.34
2018-12-26T08:51:34.801Z,1030.35
2018-12-26T08:52:34.811Z,1030.33
2018-12-26T08:53:34.759Z,1030.33
2018-12-26T08:54:34.738Z,1030.33
2018-12-26T08:55:34.728Z,1030.32
2018-12-26T08:56:34.685Z,1030.35
2018-12-26T08:57:34.659Z,1030.37
2018-12-26T08:58:35.226Z,1030.41
2018-12-26T08:59:34.617Z,1030.38
2018-12-26T09:00:35.271Z,1030.38
2018-12-26T09:01:34.678Z,1030.33
2018-12-26T09:02:34.571Z,1030.38
2018-12-26T09:03:34.522Z,1030.37
2018-12-26T09:04:34.507Z,1030.38
2018-12-26T09:05:34.490Z,1030.35
2018-12-26T09:06:34.450Z,1030.36
2018-12-26T09:07:34.430Z,1030.34
2018-12-26T09:08:34.424Z,1030.40
2018-12-26T09:09:34.379Z,1030.36
2018-12-26T09:10:34.355Z,1030.38
2018-12-26T09:11:34.335Z,1030.42
2018-12-26T09:12:34.334Z,1030.37
2018-12-26T09:13:34.285Z,1030.40
2018-12-26T09:14:34.260Z,1030.42
2018-12-26T09:15:34.240Z,1030.41
2018-12-26T09:16:34.219Z,1030.39
2018-12-26T09:17:34.195Z,1030.36
2018-12-26T09:18:34.197Z,1030.37
2018-12-26T09:19:34.167Z,1030.35
2018-12-26T09:20:34.124Z,1030.34
2018-12-26T09:21:34.102Z,1030.32
2018-12-26T09:22:34.087Z,1030.31
2018-12-26T09:23:34.052Z,1030.30
2018-12-26T09:24:34.032Z,1030.27
2018-12-26T09:25:34.026Z,1030.30
2018-12-26T09:26:34.010Z,1030.25
2018-12-26T09:27:33.959Z,1030.28
2018-12-26T09:28:33.936Z,1030.25
2018-12-26T09:29:33.932Z,1030.23
2018-12-26T09:30:33.913Z,1030.24
2018-12-26T09:31:33.873Z,1030.22
2018-12-26T09:32:33.845Z,1030.25
2018-12-26T09:33:33.817Z,1030.28
2018-12-26T09:34:33.810Z,1030.21
2018-12-26T09:35:33.793Z,1030.19
2018-12-26T09:36:33.767Z,1030.21
2018-12-26T09:37:33.723Z,1030.19
2018-12-26T09:38:33.714Z,1030.19
2018-12-26T09:39:33.697Z,1030.17
2018-12-26T09:40:33.681Z,1030.20
2018-12-26T09:41:33.647Z,1030.18
2018-12-26T09:42:33.639Z,1030.22
2018-12-26T09:43:33.584Z,1030.19
2018-12-26T09:44:33.577Z,1030.20
2018-12-26T09:45:33.559Z,1030.16
2018-12-26T09:46:33.520Z,1030.20
2018-12-26T09:47:33.507Z,1030.19
2018-12-26T09:48:33.474Z,1030.16
2018-12-26T09:49:33.550Z,1030.14
2018-12-26T09:50:34.520Z,1030.18
2018-12-26T09:51:33.401Z,1030.21
2018-12-26T09:52:33.385Z,1030.20
2018-12-26T09:53:33.366Z,1030.18
2018-12-26T09:54:33.332Z,1030.21
2018-12-26T09:57:15.470Z,1030.19
2018-12-26T09:58:15.428Z,1030.16
2018-12-26T09:59:15.424Z,1030.17
2018-12-26T10:00:15.377Z,1030.20
2018-12-26T10:01:15.352Z,1030.17
2018-12-26T10:02:15.336Z,1030.16
2018-12-26T10:03:15.335Z,1030.13
2018-12-26T10:04:15.283Z,1030.16
2018-12-26T10:05:15.267Z,1030.15
2018-12-26T10:06:15.242Z,1030.17
2018-12-26T10:07:15.217Z,1030.18
2018-12-26T10:08:15.190Z,1030.18
2018-12-26T10:09:15.194Z,1030.22
2018-12-26T10:10:15.149Z,1030.16
2018-12-26T10:11:15.125Z,1030.15
2018-12-26T10:12:15.122Z,1030.14
2018-12-26T10:13:16.533Z,1030.16
2018-12-26T10:14:15.083Z,1030.14
2018-12-26T10:15:15.033Z,1030.14
2018-12-26T10:16:15.047Z,1030.14
2018-12-26T10:17:14.999Z,1030.12
2018-12-26T10:18:14.975Z,1030.16
2018-12-26T10:19:14.969Z,1030.15
2018-12-26T10:20:18.108Z,1030.20
2018-12-26T10:21:14.912Z,1030.20
2018-12-26T10:22:14.873Z,1030.18
2018-12-26T10:23:14.849Z,1030.18
2018-12-26T10:24:14.842Z,1030.16
2018-12-26T10:25:14.830Z,1030.15
2018-12-26T10:26:14.801Z,1030.18
2018-12-26T10:27:14.764Z,1030.14
2018-12-26T10:28:14.737Z,1030.14
2018-12-26T10:29:14.722Z,1030.11
2018-12-26T10:30:14.695Z,1030.11
2018-12-26T10:31:14.696Z,1030.11
2018-12-26T10:32:14.646Z,1030.10
2018-12-26T10:33:14.623Z,1030.09
2018-12-26T10:34:14.629Z,1030.12
2018-12-26T10:35:14.578Z,1030.07
2018-12-26T10:36:14.570Z,1030.07
2018-12-26T10:37:14.547Z,1030.08
2018-12-26T10:38:14.508Z,1030.06
2018-12-26T10:39:14.487Z,1030.04
2018-12-26T10:40:14.463Z,1030.06
2018-12-26T10:41:14.439Z,1030.07
2018-12-26T10:42:14.451Z,1030.10
2018-12-26T10:43:14.401Z,1030.04
2018-12-26T10:44:14.372Z,1030.04
2018-12-26T10:45:14.345Z,1029.98
2018-12-26T10:46:15.062Z,1029.98
2018-12-26T10:47:14.307Z,1029.96
2018-12-26T10:48:14.300Z,1029.90
2018-12-26T10:49:14.256Z,1029.90
2018-12-26T10:50:14.236Z,1029.84
2018-12-26T10:51:14.212Z,1029.84
2018-12-26T10:52:14.189Z,1029.75
2018-12-26T10:53:14.191Z,1029.79
2018-12-26T10:54:14.146Z,1029.77
2018-12-26T10:55:14.129Z,1029.76
2018-12-26T10:56:14.097Z,1029.75
2018-12-26T10:57:14.071Z,1029.76
2018-12-26T10:58:14.060Z,1029.74
2018-12-26T10:59:14.061Z,1029.73
2018-12-26T11:00:14.010Z,1029.78
2018-12-26T11:01:13.997Z,1029.79
2018-12-26T11:02:13.962Z,1029.77
2018-12-26T11:03:13.954Z,1029.77
2018-12-26T11:04:13.917Z,1029.78
2018-12-26T11:05:13.934Z,1029.76
2018-12-26T11:06:13.877Z,1029.75
2018-12-26T11:07:13.851Z,1029.77
2018-12-26T11:08:13.830Z,1029.73
2018-12-26T11:09:13.815Z,1029.73
2018-12-26T11:10:13.809Z,1029.73
2018-12-26T11:11:13.764Z,1029.74
2018-12-26T11:12:13.746Z,1029.78
2018-12-26T11:13:13.822Z,1029.77
2018-12-26T11:14:13.694Z,1029.76
2018-12-26T11:15:13.675Z,1029.76
2018-12-26T11:16:13.659Z,1029.76
2018-12-26T11:17:13.637Z,1029.74
2018-12-26T11:18:13.635Z,1029.74
2018-12-26T11:19:13.585Z,1029.69
2018-12-26T11:20:13.565Z,1029.67
2018-12-26T11:21:13.540Z,1029.65
2018-12-26T11:22:13.523Z,1029.65
2018-12-26T11:23:13.522Z,1029.62
2018-12-26T11:24:13.475Z,1029.59
2018-12-26T11:25:13.453Z,1029.60
2018-12-26T11:26:13.437Z,1029.61
2018-12-26T11:27:13.406Z,1029.64
2018-12-26T11:28:13.386Z,1029.62
2018-12-26T11:29:18.502Z,1029.60
2018-12-26T11:30:13.345Z,1029.62
2018-12-26T11:31:13.325Z,1029.58
2018-12-26T11:32:13.337Z,1029.57
2018-12-26T11:33:13.276Z,1029.52
2018-12-26T11:34:13.258Z,1029.53
2018-12-26T11:35:13.274Z,1029.57
2018-12-26T11:36:13.214Z,1029.57
2018-12-26T11:37:13.189Z,1029.58
2018-12-26T11:38:13.168Z,1029.56
2018-12-26T11:39:13.146Z,1029.56
2018-12-26T11:40:13.127Z,1029.57
2018-12-26T11:41:13.128Z,1029.55
2018-12-26T11:42:13.097Z,1029.51
2018-12-26T11:43:13.069Z,1029.52
2018-12-26T11:44:13.035Z,1029.50
2018-12-26T11:45:13.011Z,1029.50
2018-12-26T11:46:13.019Z,1029.50
2018-12-26T11:47:13.030Z,1029.51
2018-12-26T11:48:14.027Z,1029.50
2018-12-26T11:49:13.022Z,1029.50
2018-12-26T11:50:13.094Z,1029.53
2018-12-26T11:51:12.893Z,1029.50
2018-12-26T11:52:12.974Z,1029.49
2018-12-26T11:53:12.852Z,1029.48
2018-12-26T11:54:12.823Z,1029.51
2018-12-26T11:55:12.797Z,1029.50
2018-12-26T11:56:12.791Z,1029.49
2018-12-26T11:57:12.753Z,1029.55
2018-12-26T11:58:12.755Z,1029.49
2018-12-26T11:59:12.709Z,1029.52
2018-12-26T12:00:12.690Z,1029.51
2018-12-26T12:01:12.672Z,1029.46
2018-12-26T12:02:20.379Z,1029.45
2018-12-26T12:03:12.642Z,1029.42
2018-12-26T12:04:12.609Z,1029.44
2018-12-26T12:05:12.579Z,1029.44
2018-12-26T12:06:12.582Z,1029.42
2018-12-26T12:07:12.541Z,1029.40
2018-12-26T12:08:12.535Z,1029.43